Manon — 9V9244 — position and weather

sailwx.info

Track history (hours):
 
Tides and Currents Weather Stations Pressure Air Temp Water Temp Dewpoint Dewpoint Depression Visibility Wind Speed Wind Dir Waves Ship Positions

Manon

Last reported at 2018-Jul-12 12:53 UTC. Time now 2018-Jul-15 21:01 UTC.
Position S 29°50' E 031°47'.

Length 228 m; draft 9.5 m.

Type: Cargo ship. MMSI: 566184000.

Date/timePositionNaut miles runAvg speedWind from/ knotsBaromVisibWave heightAir tempDewpointWater temp
2018-Jul-12 12:53S 29°50' E 031°47'614.8
2018-Jul-12 12:30S 29°50' E 031°40'816.1
2018-Jul-12 12:00S 29°50' E 031°31'916.4
2018-Jul-12 11:29S 29°50' E 031°21'816.4
2018-Jul-12 11:00S 29°50' E 031°12'714.6
2018-Jul-12 10:30S 29°52' E 031°04'2 3.4
2018-Jul-12 10:00S 29°52' E 031°02'0 0.0
2018-Jul-12 09:24S 29°52' E 031°02'0 0.0
2018-Jul-12 09:00S 29°52' E 031°02'0 0.0
2018-Jul-12 07:24S 29°52' E 031°02'0 0.0
2018-Jul-12 06:54S 29°52' E 031°02'0 0.0
2018-Jul-12 06:30S 29°52' E 031°02'0 0.0
2018-Jul-12 05:54S 29°52' E 031°02'0 0.0
2018-Jul-12 05:18S 29°52' E 031°02'0 0.0
2018-Jul-12 05:00S 29°52' E 031°02'0 0.0
2018-Jul-12 04:30S 29°52' E 031°02'0 0.0
2018-Jul-12 03:54S 29°52' E 031°02'0 0.0
2018-Jul-12 03:24S 29°52' E 031°02'0 0.0
2018-Jul-12 02:54S 29°52' E 031°02'0 0.0
2018-Jul-12 01:54S 29°52' E 031°02'0 0.0
2018-Jul-12 01:30S 29°52' E 031°02'0 0.0
2018-Jul-12 01:01S 29°52' E 031°02'1 2.1
2018-Jul-12 00:30S 29°52' E 031°03'4 7.2
2018-Jul-12 00:01S 29°50' E 031°07'611.2
2018-Jul-11 23:29S 29°56' E 031°07'613.2
2018-Jul-11 23:00S 30°02' E 031°04'  
2018-Jul-08 03:09S 34°48' E 019°23'515.8
2018-Jul-08 02:49S 34°46' E 019°17'516.4
2018-Jul-08 02:30S 34°44' E 019°11'817.2
2018-Jul-08 02:00S 34°41' E 019°02'816.9
2018-Jul-08 01:30S 34°38' E 018°52'816.7
2018-Jul-08 01:00S 34°35' E 018°43'816.7
2018-Jul-08 00:30S 34°32' E 018°33'816.4
2018-Jul-08 00:01S 34°28' E 018°25'816.4
2018-Jul-07 23:30S 34°22' E 018°17'816.4
2018-Jul-07 23:01S 34°16' E 018°11'916.7
2018-Jul-07 22:30S 34°09' E 018°04'816.9
2018-Jul-07 22:01S 34°03' E 017°58'917.1
2018-Jul-07 21:30S 33°56' E 017°52'  
Track history (hours):
 
Tides and Currents Weather Stations Pressure Air Temp Water Temp Dewpoint Dewpoint Depression Visibility Wind Speed Wind Dir Waves Ship Positions

Manon

Last reported at 2018-Jul-12 12:53 UTC. Time now 2018-Jul-15 21:01 UTC.
Position S 29°50' E 031°47'.

Length 228 m; draft 9.5 m.

Type: Cargo ship. MMSI: 566184000.

Date/timePositionNaut miles runAvg speedWind from/ knotsBaromVisibWave heightAir tempDewpointWater temp
2018-Jul-12 12:53S 29°50' E 031°47'614.8
2018-Jul-12 12:30S 29°50' E 031°40'816.1
2018-Jul-12 12:00S 29°50' E 031°31'916.4
2018-Jul-12 11:29S 29°50' E 031°21'816.4
2018-Jul-12 11:00S 29°50' E 031°12'714.6
2018-Jul-12 10:30S 29°52' E 031°04'2 3.4
2018-Jul-12 10:00S 29°52' E 031°02'0 0.0
2018-Jul-12 09:24S 29°52' E 031°02'0 0.0
2018-Jul-12 09:00S 29°52' E 031°02'0 0.0
2018-Jul-12 07:24S 29°52' E 031°02'0 0.0
2018-Jul-12 06:54S 29°52' E 031°02'0 0.0
2018-Jul-12 06:30S 29°52' E 031°02'0 0.0
2018-Jul-12 05:54S 29°52' E 031°02'0 0.0
2018-Jul-12 05:18S 29°52' E 031°02'0 0.0
2018-Jul-12 05:00S 29°52' E 031°02'0 0.0
2018-Jul-12 04:30S 29°52' E 031°02'0 0.0
2018-Jul-12 03:54S 29°52' E 031°02'0 0.0
2018-Jul-12 03:24S 29°52' E 031°02'0 0.0
2018-Jul-12 02:54S 29°52' E 031°02'0 0.0
2018-Jul-12 01:54S 29°52' E 031°02'0 0.0
2018-Jul-12 01:30S 29°52' E 031°02'0 0.0
2018-Jul-12 01:01S 29°52' E 031°02'1 2.1
2018-Jul-12 00:30S 29°52' E 031°03'4 7.2
2018-Jul-12 00:01S 29°50' E 031°07'611.2
2018-Jul-11 23:29S 29°56' E 031°07'613.2
2018-Jul-11 23:00S 30°02' E 031°04'  
2018-Jul-08 03:09S 34°48' E 019°23'515.8
2018-Jul-08 02:49S 34°46' E 019°17'516.4
2018-Jul-08 02:30S 34°44' E 019°11'817.2
2018-Jul-08 02:00S 34°41' E 019°02'816.9
2018-Jul-08 01:30S 34°38' E 018°52'816.7
2018-Jul-08 01:00S 34°35' E 018°43'816.7
2018-Jul-08 00:30S 34°32' E 018°33'816.4
2018-Jul-08 00:01S 34°28' E 018°25'816.4
2018-Jul-07 23:30S 34°22' E 018°17'816.4
2018-Jul-07 23:01S 34°16' E 018°11'916.7
2018-Jul-07 22:30S 34°09' E 018°04'816.9
2018-Jul-07 22:01S 34°03' E 017°58'917.1
2018-Jul-07 21:30S 33°56' E 017°52'  

Dump ship's entire track history